Pitt Meadows, British Columbia

3:11 AM PST on February 09, 2016 (GMT -0800)
Pitt Meadows Chez Douglas | | Change Station
CLOSE
Current Station
Personal Weather Station
Location: Pitt Meadows, BRITISH COLUMBIA
Elevation: 66 ft
Nearby Weather Stations

Elev 66 ft 49.22 °N, 122.69 °W | Updated 3 minutes ago

Clear
Clear
35.4 °F
Feels Like 35 °F
N
0.0
Wind Variable Wind from SE

Today
High -- | Low -- °F
--% Chance of Precip.
Yesterday
High -- | Low -- °F
Precip. -- in
Pressure 30.25 in
Visibility 15.0 miles
Clouds Clear
Windchill 35 °F
Dew Point 35 °F
Humidity 99%
Rainfall 0.00 in
Snow Depth Not available.
7:30 AM 5:20 PM
New Moon, 1% visible
METAR CYXX 091100Z 00000KT 15SM SKC 07/05 A3024 RMK SLP243
Pressure 30.25 in
Visibility 15.0 miles
Clouds Clear
Windchill 35 °F
Dew Point 35 °F
Humidity 99%
Rainfall 0.00 in
Snow Depth Not available.
7:30 AM 5:20 PM
New Moon, 1% visible
METAR CYXX 091100Z 00000KT 15SM SKC 07/05 A3024 RMK SLP243

10-Day Weather Forecast

Almanac

Astronomy

Feb. 09, 2016 Rise Set
Actual Time
Civil Twilight
Nautical Twilight
Astronomical Twilight
Moon
Length of Visible Light
Length of Day
Tomorrow will be .
, % of the Moon is Illuminated

Today's Extremes

Country Highs Country Lows

Community

WunderPhotos

Upload Photos

1,891,565 photos uploaded!

WunderBlog® & News

Nearby

Air Quality

  Air Quality AQ Index Pollutant
Not available.

Snow Depth

Station Depth Elevation

Earthquake Activity

City Distance Mag. Time & Date
Minimum magnitude displayed is 2.5.

Coastal Water Temperatures

Place Temperature

Stations

Nearby Weather Stations

Station Location Temp. Windchill Dew Point Humidity Wind Precip. Elev Updated Type
                   

Watches & Warnings

There are currently no watches in effect.